Time;durP1;ratioP1;P1;durP2;ratioP2;P2;SDS_P1;SDS_P2;PMS_P1;PMS_P2;Temp;Humidity;BMP_temperature;BMP_pressure;BME280_temperature;BME280_humidity;BME280_pressure;Samples;Min_cycle;Max_cycle;Signal;HPM_P1;HPM_P2
2022/03/07 00:01:14;;;;;;;7.55;1.27;;;;;;;;;;5011220;28;20424;-28
2022/03/07 00:03:41;;;;;;;9.45;1.63;;;;;;;;;;5005221;28;20026;-29
2022/03/07 00:06:08;;;;;;;9.63;1.45;;;;;;;;;;4999109;28;20553;-30
2022/03/07 00:08:35;;;;;;;48.58;3.97;;;;;;;;;;4999156;28;20018;-29
2022/03/07 00:11:02;;;;;;;11.63;1.38;;;;;;;;;;5000901;28;20427;-29
2022/03/07 00:13:29;;;;;;;9.18;1.50;;;;;;;;;;4995397;28;20030;-30
2022/03/07 00:15:57;;;;;;;10.43;1.58;;;;;;;;;;4994195;28;20069;-29
2022/03/07 00:18:24;;;;;;;8.18;1.20;;;;;;;;;;4991269;28;20042;-29
2022/03/07 00:20:51;;;;;;;9.05;1.30;;;;;;;;;;4974209;28;20399;-29
2022/03/07 00:23:18;;;;;;;9.10;1.75;;;;;;;;;;5000079;28;20476;-28
2022/03/07 00:25:45;;;;;;;7.28;1.30;;;;;;;;;;4997462;28;20377;-30
2022/03/07 00:28:12;;;;;;;7.47;1.65;;;;;;;;;;5004275;28;20025;-29
2022/03/07 00:30:39;;;;;;;7.55;1.60;;;;;;;;;;5003206;28;20572;-28
2022/03/07 00:33:06;;;;;;;14.10;1.77;;;;;;;;;;4998015;28;20420;-29
2022/03/07 00:35:33;;;;;;;14.90;1.60;;;;;;;;;;5000387;28;20034;-29
2022/03/07 00:38:00;;;;;;;11.68;1.73;;;;;;;;;;4998217;28;20031;-28
2022/03/07 00:40:27;;;;;;;7.28;1.58;;;;;;;;;;5000185;28;20072;-29
2022/03/07 00:42:54;;;;;;;11.15;1.75;;;;;;;;;;4998155;28;20031;-29
2022/03/07 00:45:21;;;;;;;10.43;1.80;;;;;;;;;;4992480;28;20097;-29
2022/03/07 00:47:48;;;;;;;12.68;1.90;;;;;;;;;;4993300;28;20123;-29
2022/03/07 00:50:15;;;;;;;11.45;2.08;;;;;;;;;;5002133;28;21594;-29
2022/03/07 00:52:42;;;;;;;9.07;1.65;;;;;;;;;;5010293;28;20495;-29
2022/03/07 00:55:09;;;;;;;9.40;1.45;;;;;;;;;;5010250;28;20040;-28
2022/03/07 00:57:37;;;;;;;12.85;2.50;;;;;;;;;;5010552;28;20491;-30
2022/03/07 01:00:04;;;;;;;13.82;2.25;;;;;;;;;;5010109;28;20623;-28
2022/03/07 01:02:31;;;;;;;10.27;2.20;;;;;;;;;;5011311;28;20095;-28
2022/03/07 01:05:00;;;;;;;11.45;2.70;;;;;;;;;;5008470;28;20034;-29
2022/03/07 01:07:28;;;;;;;10.45;2.60;;;;;;;;;;5025649;28;20033;-28
2022/03/07 01:09:55;;;;;;;11.57;3.05;;;;;;;;;;5035070;28;20495;-28
2022/03/07 01:12:22;;;;;;;12.23;2.50;;;;;;;;;;5034002;28;20025;-28
2022/03/07 01:14:48;;;;;;;10.05;2.53;;;;;;;;;;5034505;28;20029;-28
2022/03/07 01:17:15;;;;;;;8.15;2.53;;;;;;;;;;5035066;28;20084;-28
2022/03/07 01:19:42;;;;;;;14.30;2.63;;;;;;;;;;5033716;28;20120;-28
2022/03/07 01:22:09;;;;;;;12.95;2.30;;;;;;;;;;5033739;28;20083;-28
2022/03/07 01:24:37;;;;;;;9.07;2.65;;;;;;;;;;5034634;28;20026;-28
2022/03/07 01:27:05;;;;;;;7.63;2.53;;;;;;;;;;5034854;28;20040;-28
2022/03/07 01:29:31;;;;;;;10.65;2.40;;;;;;;;;;5003891;28;20109;-28
2022/03/07 01:31:58;;;;;;;15.57;2.95;;;;;;;;;;4995306;28;20098;-28
2022/03/07 01:34:25;;;;;;;8.50;1.90;;;;;;;;;;4994377;28;20041;-28
2022/03/07 01:36:52;;;;;;;10.60;2.13;;;;;;;;;;4999600;28;20034;-28
2022/03/07 01:39:19;;;;;;;9.88;2.20;;;;;;;;;;5002303;28;20046;-28
2022/03/07 01:41:46;;;;;;;6.68;2.35;;;;;;;;;;5005709;28;20029;-28
2022/03/07 01:44:17;;;;;;;9.30;2.38;;;;;;;;;;5006485;28;20526;-27
2022/03/07 01:46:44;;;;;;;10.38;2.13;;;;;;;;;;4994588;28;20038;-28
2022/03/07 01:49:11;;;;;;;7.97;1.92;;;;;;;;;;4995305;28;20026;-28
2022/03/07 01:51:39;;;;;;;8.80;1.75;;;;;;;;;;4995024;28;20057;-28
2022/03/07 01:54:06;;;;;;;3.92;1.42;;;;;;;;;;4995086;28;20392;-28
2022/03/07 01:56:33;;;;;;;6.72;1.85;;;;;;;;;;4995113;28;20485;-28
2022/03/07 01:59:00;;;;;;;5.88;1.45;;;;;;;;;;5011710;28;20030;-28
2022/03/07 02:01:27;;;;;;;8.95;1.65;;;;;;;;;;4997192;28;20064;-27
2022/03/07 02:03:54;;;;;;;11.68;2.17;;;;;;;;;;5014339;28;20447;-27
2022/03/07 02:06:21;;;;;;;7.82;1.92;;;;;;;;;;5014484;28;20045;-28
2022/03/07 02:08:49;;;;;;;5.18;1.70;;;;;;;;;;5014382;28;20036;-28
2022/03/07 02:11:16;;;;;;;8.52;1.95;;;;;;;;;;5014477;28;20389;-28
2022/03/07 02:13:43;;;;;;;5.35;1.65;;;;;;;;;;5007398;28;20083;-28
2022/03/07 02:16:12;;;;;;;6.40;1.60;;;;;;;;;;4995024;28;20393;-28
2022/03/07 02:18:39;;;;;;;7.57;1.55;;;;;;;;;;4997793;28;20030;-28
2022/03/07 02:21:10;;;;;;;8.25;1.70;;;;;;;;;;5004074;28;20078;-28
2022/03/07 02:23:37;;;;;;;5.75;1.50;;;;;;;;;;5002646;28;20493;-28
2022/03/07 02:26:11;;;;;;;10.70;1.98;;;;;;;;;;5002747;28;20404;-28
2022/03/07 02:28:42;;;;;;;9.80;1.77;;;;;;;;;;5002820;28;20034;-28
2022/03/07 02:31:09;;;;;;;6.93;1.63;;;;;;;;;;5002159;28;20038;-29
2022/03/07 02:33:37;;;;;;;7.93;1.70;;;;;;;;;;5003715;28;20033;-28
2022/03/07 02:36:05;;;;;;;6.90;1.75;;;;;;;;;;5003343;28;20026;-28
2022/03/07 02:38:32;;;;;;;5.55;1.55;;;;;;;;;;5001816;28;20030;-28
2022/03/07 02:40:59;;;;;;;5.30;1.55;;;;;;;;;;5003388;28;20117;-28
2022/03/07 02:43:26;;;;;;;6.65;1.85;;;;;;;;;;5003474;28;20026;-28
2022/03/07 02:45:53;;;;;;;4.55;1.50;;;;;;;;;;4996389;28;20162;-28
2022/03/07 02:48:20;;;;;;;6.00;1.60;;;;;;;;;;4994361;28;20038;-28
2022/03/07 02:50:47;;;;;;;4.65;1.60;;;;;;;;;;4994340;28;20034;-28
2022/03/07 02:53:14;;;;;;;5.72;1.85;;;;;;;;;;4994299;28;20030;-28
2022/03/07 02:55:41;;;;;;;5.25;1.40;;;;;;;;;;4994345;28;20030;-28
2022/03/07 02:58:08;;;;;;;5.22;1.40;;;;;;;;;;4994211;28;20515;-28
2022/03/07 03:00:35;;;;;;;6.07;1.58;;;;;;;;;;4994077;28;20073;-28
2022/03/07 03:03:02;;;;;;;5.07;1.40;;;;;;;;;;4994113;28;20485;-28
2022/03/07 03:05:29;;;;;;;5.75;1.30;;;;;;;;;;4993927;28;20035;-28
2022/03/07 03:07:57;;;;;;;2.47;1.08;;;;;;;;;;4994028;28;20076;-28
2022/03/07 03:10:24;;;;;;;4.78;1.40;;;;;;;;;;4994018;28;20480;-28
2022/03/07 03:12:51;;;;;;;7.40;1.13;;;;;;;;;;4993864;28;20041;-28
2022/03/07 03:15:17;;;;;;;6.78;1.17;;;;;;;;;;4993765;28;20026;-28
2022/03/07 03:17:45;;;;;;;6.28;1.20;;;;;;;;;;4993818;28;20429;-28
2022/03/07 03:20:14;;;;;;;4.32;1.23;;;;;;;;;;4993752;28;20392;-28
2022/03/07 03:22:42;;;;;;;4.72;1.30;;;;;;;;;;4993849;28;20026;-28
2022/03/07 03:25:09;;;;;;;5.32;1.20;;;;;;;;;;4993634;28;20037;-28
2022/03/07 03:27:37;;;;;;;4.55;1.20;;;;;;;;;;4993735;28;20349;-28
2022/03/07 03:30:05;;;;;;;4.55;1.20;;;;;;;;;;4993031;28;20078;-28
2022/03/07 03:32:32;;;;;;;4.72;1.20;;;;;;;;;;4993659;28;20030;-28
2022/03/07 03:34:59;;;;;;;4.25;0.88;;;;;;;;;;4993502;28;20429;-28
2022/03/07 03:37:26;;;;;;;3.08;0.90;;;;;;;;;;4993493;28;20022;-28
2022/03/07 03:39:54;;;;;;;6.90;1.50;;;;;;;;;;4993424;28;20031;-27
2022/03/07 03:42:24;;;;;;;4.68;0.95;;;;;;;;;;4993495;28;20035;-28
2022/03/07 03:44:51;;;;;;;3.85;1.23;;;;;;;;;;4993140;28;20062;-28
2022/03/07 03:47:18;;;;;;;3.67;1.08;;;;;;;;;;4993437;28;20077;-28
2022/03/07 03:49:45;;;;;;;3.60;1.20;;;;;;;;;;4993373;28;20030;-28
2022/03/07 03:52:12;;;;;;;3.30;1.15;;;;;;;;;;4993270;28;20481;-34
2022/03/07 03:54:39;;;;;;;1.83;0.73;;;;;;;;;;4993200;28;20022;-28
2022/03/07 03:57:06;;;;;;;4.63;0.95;;;;;;;;;;4993215;28;20548;-28
2022/03/07 03:59:33;;;;;;;3.28;0.93;;;;;;;;;;4993182;28;20046;-28
2022/03/07 04:02:00;;;;;;;3.40;1.17;;;;;;;;;;4993202;28;20034;-28
2022/03/07 04:04:27;;;;;;;2.67;0.85;;;;;;;;;;4993084;28;20027;-28
2022/03/07 04:06:54;;;;;;;2.95;1.17;;;;;;;;;;4993163;28;20030;-28
2022/03/07 04:09:22;;;;;;;3.67;1.20;;;;;;;;;;4993072;28;20480;-28
2022/03/07 04:11:49;;;;;;;4.05;1.00;;;;;;;;;;4993104;28;20042;-28
2022/03/07 04:14:17;;;;;;;1.98;0.80;;;;;;;;;;4992924;28;20029;-28
2022/03/07 04:16:44;;;;;;;3.85;1.00;;;;;;;;;;4993031;28;20022;-28
2022/03/07 04:19:12;;;;;;;3.72;1.00;;;;;;;;;;4992898;28;20039;-28
2022/03/07 04:21:40;;;;;;;4.47;1.35;;;;;;;;;;4993000;28;20560;-28
2022/03/07 04:24:07;;;;;;;1.30;0.77;;;;;;;;;;4992875;28;20037;-28
2022/03/07 04:26:34;;;;;;;2.92;1.00;;;;;;;;;;4992925;28;20388;-28
2022/03/07 04:29:05;;;;;;;4.25;0.93;;;;;;;;;;4992977;28;20061;-28
2022/03/07 04:31:32;;;;;;;2.67;1.00;;;;;;;;;;4992802;28;20026;-28
2022/03/07 04:33:59;;;;;;;3.15;1.02;;;;;;;;;;4992954;28;20038;-28
2022/03/07 04:36:26;;;;;;;2.00;0.80;;;;;;;;;;4992843;28;20034;-28
2022/03/07 04:38:53;;;;;;;1.95;0.80;;;;;;;;;;4992790;28;20404;-28
2022/03/07 04:41:20;;;;;;;2.85;1.00;;;;;;;;;;4975269;28;20428;-28
2022/03/07 04:43:47;;;;;;;2.70;1.00;;;;;;;;;;4995983;28;20062;-28
2022/03/07 04:46:14;;;;;;;2.35;1.00;;;;;;;;;;4996447;28;20157;-28
2022/03/07 04:48:41;;;;;;;3.00;1.05;;;;;;;;;;4996648;28;20109;-27
2022/03/07 04:51:08;;;;;;;2.58;0.90;;;;;;;;;;4996566;28;20040;-28
2022/03/07 04:53:35;;;;;;;2.15;1.00;;;;;;;;;;4996398;28;20061;-28
2022/03/07 04:56:02;;;;;;;2.40;0.80;;;;;;;;;;4996579;28;20092;-28
2022/03/07 04:58:29;;;;;;;3.03;0.88;;;;;;;;;;4996376;28;20501;-28
2022/03/07 05:00:56;;;;;;;1.58;0.70;;;;;;;;;;4996441;28;20046;-28
2022/03/07 05:03:23;;;;;;;2.10;0.73;;;;;;;;;;4996340;28;20109;-28
2022/03/07 05:05:50;;;;;;;2.28;0.90;;;;;;;;;;4996409;28;20034;-28
2022/03/07 05:08:17;;;;;;;3.00;1.20;;;;;;;;;;4996363;28;20034;-28
2022/03/07 05:10:47;;;;;;;2.08;0.80;;;;;;;;;;4996126;28;20084;-28
2022/03/07 05:13:14;;;;;;;2.85;0.90;;;;;;;;;;4996059;28;20030;-28
2022/03/07 05:15:41;;;;;;;1.25;0.65;;;;;;;;;;4996169;28;20019;-28
2022/03/07 05:18:08;;;;;;;2.42;0.70;;;;;;;;;;4996136;28;20030;-28
2022/03/07 05:20:35;;;;;;;3.28;1.00;;;;;;;;;;4996127;28;20058;-28
2022/03/07 05:23:02;;;;;;;1.10;0.50;;;;;;;;;;4996005;28;20034;-28
2022/03/07 05:25:29;;;;;;;1.48;0.70;;;;;;;;;;4995969;28;20031;-28
2022/03/07 05:27:56;;;;;;;1.17;0.60;;;;;;;;;;4995868;28;20080;-27
2022/03/07 05:30:24;;;;;;;1.10;0.60;;;;;;;;;;4995967;28;20034;-28
2022/03/07 05:32:51;;;;;;;3.35;1.10;;;;;;;;;;4995900;28;20034;-28
2022/03/07 05:35:19;;;;;;;1.92;0.70;;;;;;;;;;4995686;28;20123;-28
2022/03/07 05:37:46;;;;;;;2.47;0.90;;;;;;;;;;4995416;28;20057;-28
2022/03/07 05:40:14;;;;;;;1.45;0.70;;;;;;;;;;4995609;28;20041;-28
2022/03/07 05:42:41;;;;;;;2.08;0.77;;;;;;;;;;4995729;28;20105;-28
2022/03/07 05:45:10;;;;;;;1.33;0.63;;;;;;;;;;4995409;28;20050;-28
2022/03/07 05:47:38;;;;;;;1.67;0.60;;;;;;;;;;4995557;28;20037;-28
2022/03/07 05:50:05;;;;;;;2.00;0.85;;;;;;;;;;4995390;28;20481;-28
2022/03/07 05:52:33;;;;;;;2.42;0.80;;;;;;;;;;4995378;28;20042;-28
2022/03/07 05:55:00;;;;;;;2.35;0.68;;;;;;;;;;4995129;28;20026;-28
2022/03/07 05:57:27;;;;;;;1.35;0.70;;;;;;;;;;4995451;28;20030;-28
2022/03/07 05:59:53;;;;;;;1.42;0.77;;;;;;;;;;4995326;28;20035;-28
2022/03/07 06:02:20;;;;;;;2.35;0.90;;;;;;;;;;4995295;28;20026;-28
2022/03/07 06:04:47;;;;;;;1.90;0.77;;;;;;;;;;4995066;28;20037;-28
2022/03/07 06:07:14;;;;;;;1.48;0.77;;;;;;;;;;4995246;28;20037;-28
2022/03/07 06:09:41;;;;;;;2.55;0.60;;;;;;;;;;4995239;28;20113;-28
2022/03/07 06:12:09;;;;;;;2.60;0.95;;;;;;;;;;4995080;28;20116;-28
2022/03/07 06:14:36;;;;;;;3.17;1.00;;;;;;;;;;4995022;28;21398;-28
2022/03/07 06:17:03;;;;;;;1.85;0.70;;;;;;;;;;4995043;28;20054;-28
2022/03/07 06:19:30;;;;;;;1.58;0.80;;;;;;;;;;4994987;28;20551;-28
2022/03/07 06:21:57;;;;;;;1.83;0.80;;;;;;;;;;4994960;28;20121;-28
2022/03/07 06:24:24;;;;;;;1.77;0.73;;;;;;;;;;4994877;28;20030;-28
2022/03/07 06:26:51;;;;;;;2.08;0.80;;;;;;;;;;4994904;28;20076;-27
2022/03/07 06:29:18;;;;;;;2.50;0.68;;;;;;;;;;4994861;28;20030;-28
2022/03/07 06:31:45;;;;;;;1.92;0.85;;;;;;;;;;4994799;28;20026;-28
2022/03/07 06:34:12;;;;;;;1.58;0.93;;;;;;;;;;4994662;28;20026;-27
2022/03/07 06:36:39;;;;;;;2.33;0.90;;;;;;;;;;4994770;28;20444;-28
2022/03/07 06:39:07;;;;;;;1.38;0.80;;;;;;;;;;4994569;28;20128;-28
2022/03/07 06:41:34;;;;;;;1.27;0.60;;;;;;;;;;4994645;28;20058;-28
2022/03/07 06:44:01;;;;;;;1.50;0.77;;;;;;;;;;4994493;28;20038;-28
2022/03/07 06:46:28;;;;;;;1.15;0.60;;;;;;;;;;4994402;28;20587;-28
2022/03/07 06:48:56;;;;;;;2.17;0.85;;;;;;;;;;4994450;28;20110;-28
2022/03/07 06:51:23;;;;;;;2.05;0.90;;;;;;;;;;4994416;28;20023;-28
2022/03/07 06:53:50;;;;;;;1.52;0.77;;;;;;;;;;5138133;23;20053;-26
2022/03/07 06:56:17;;;;;;;2.15;0.80;;;;;;;;;;4993824;28;20097;-28
2022/03/07 06:58:46;;;;;;;2.70;0.98;;;;;;;;;;4993782;28;20460;-28
2022/03/07 07:01:13;;;;;;;3.67;1.10;;;;;;;;;;4993802;28;20109;-28
2022/03/07 07:03:40;;;;;;;3.65;1.17;;;;;;;;;;4993736;28;20030;-29
2022/03/07 07:06:07;;;;;;;1.70;0.88;;;;;;;;;;4992932;28;20030;-28
2022/03/07 07:08:34;;;;;;;2.92;0.90;;;;;;;;;;4993726;28;20452;-28
2022/03/07 07:11:01;;;;;;;1.88;0.77;;;;;;;;;;4993647;28;20031;-28
2022/03/07 07:13:27;;;;;;;1.77;0.80;;;;;;;;;;4993578;28;20481;-29
2022/03/07 07:15:55;;;;;;;1.48;0.80;;;;;;;;;;4993602;28;20027;-28
2022/03/07 07:18:22;;;;;;;1.90;0.88;;;;;;;;;;4993398;28;20463;-28
2022/03/07 07:20:50;;;;;;;1.35;0.60;;;;;;;;;;4993509;28;20089;-28
2022/03/07 07:23:21;;;;;;;1.10;0.63;;;;;;;;;;4993409;28;20062;-28
2022/03/07 07:25:48;;;;;;;1.52;0.50;;;;;;;;;;4993393;28;20018;-28
2022/03/07 07:28:15;;;;;;;3.38;0.70;;;;;;;;;;4993361;28;20105;-28
2022/03/07 07:30:44;;;;;;;1.85;0.80;;;;;;;;;;4993317;28;20026;-28
2022/03/07 07:33:11;;;;;;;1.98;0.60;;;;;;;;;;4993260;28;20078;-28
2022/03/07 07:35:38;;;;;;;1.00;0.60;;;;;;;;;;4993191;28;20077;-28
2022/03/07 07:38:06;;;;;;;1.50;0.60;;;;;;;;;;4993115;28;20473;-28
2022/03/07 07:40:34;;;;;;;2.08;0.60;;;;;;;;;;4992988;28;20030;-28
2022/03/07 07:43:01;;;;;;;1.23;0.68;;;;;;;;;;4993091;28;20030;-28
2022/03/07 07:45:28;;;;;;;0.77;0.50;;;;;;;;;;4993028;28;21048;-28
2022/03/07 07:47:57;;;;;;;1.88;0.70;;;;;;;;;;4993063;28;20025;-28
2022/03/07 07:50:24;;;;;;;1.88;0.90;;;;;;;;;;4992935;28;20027;-28
2022/03/07 07:52:51;;;;;;;1.60;0.55;;;;;;;;;;4992906;28;20106;-28
2022/03/07 07:55:18;;;;;;;1.15;0.60;;;;;;;;;;4992646;28;20077;-29
2022/03/07 07:57:45;;;;;;;0.63;0.45;;;;;;;;;;4992883;28;20484;-28
2022/03/07 08:00:15;;;;;;;0.95;0.52;;;;;;;;;;4992766;28;20038;-27
2022/03/07 08:02:43;;;;;;;3.25;0.70;;;;;;;;;;4992687;28;20037;-28
2022/03/07 08:05:10;;;;;;;1.48;0.65;;;;;;;;;;4992728;28;20374;-27
2022/03/07 08:07:39;;;;;;;1.33;0.60;;;;;;;;;;4992694;28;20030;-28
2022/03/07 08:10:06;;;;;;;2.80;0.50;;;;;;;;;;4992634;28;20046;-27
2022/03/07 08:12:33;;;;;;;1.15;0.52;;;;;;;;;;4992677;28;20042;-28
2022/03/07 08:15:00;;;;;;;1.10;0.52;;;;;;;;;;4992537;28;20029;-27
2022/03/07 08:17:27;;;;;;;0.75;0.57;;;;;;;;;;4992473;28;20015;-27
2022/03/07 08:19:54;;;;;;;1.15;0.70;;;;;;;;;;4992653;28;20027;-27
2022/03/07 08:22:21;;;;;;;1.20;0.40;;;;;;;;;;4992565;28;20022;-27
2022/03/07 08:24:48;;;;;;;1.00;0.60;;;;;;;;;;4992543;28;20018;-27
2022/03/07 08:27:15;;;;;;;2.08;0.80;;;;;;;;;;4992507;28;20053;-28
2022/03/07 08:29:41;;;;;;;1.70;0.60;;;;;;;;;;4992656;28;20034;-27
2022/03/07 08:32:08;;;;;;;2.03;0.90;;;;;;;;;;4974990;28;20026;-27
2022/03/07 08:34:35;;;;;;;1.25;0.57;;;;;;;;;;4992444;28;20027;-27
2022/03/07 08:37:02;;;;;;;2.75;0.75;;;;;;;;;;4992394;28;20113;-27
2022/03/07 08:39:29;;;;;;;1.52;0.60;;;;;;;;;;4992207;28;20468;-27
2022/03/07 08:41:56;;;;;;;1.88;0.50;;;;;;;;;;4992447;28;20042;-27
2022/03/07 08:44:23;;;;;;;0.70;0.50;;;;;;;;;;4974766;28;20464;-27
2022/03/07 08:46:50;;;;;;;1.63;0.65;;;;;;;;;;4992374;28;20461;-27
2022/03/07 08:49:17;;;;;;;0.90;0.50;;;;;;;;;;4992390;28;20023;-27
2022/03/07 08:51:46;;;;;;;1.92;0.55;;;;;;;;;;4992319;28;20473;-27
2022/03/07 08:54:14;;;;;;;2.30;0.57;;;;;;;;;;4991909;28;20042;-27
2022/03/07 08:56:41;;;;;;;1.35;0.50;;;;;;;;;;4992231;28;20027;-27
2022/03/07 08:59:08;;;;;;;1.08;0.50;;;;;;;;;;4992384;28;20129;-28
2022/03/07 09:01:36;;;;;;;1.58;0.60;;;;;;;;;;4992163;28;20052;-27
2022/03/07 09:04:04;;;;;;;0.73;0.40;;;;;;;;;;4992070;28;20026;-27
2022/03/07 09:06:30;;;;;;;1.40;0.60;;;;;;;;;;4992169;28;20077;-27
2022/03/07 09:08:57;;;;;;;2.00;0.50;;;;;;;;;;4992055;28;20441;-27
2022/03/07 09:11:24;;;;;;;0.98;0.40;;;;;;;;;;4992073;28;20054;-28
2022/03/07 09:13:52;;;;;;;1.80;0.80;;;;;;;;;;4992032;28;20052;-27
2022/03/07 09:16:19;;;;;;;1.40;0.50;;;;;;;;;;4992011;28;20050;-28
2022/03/07 09:18:46;;;;;;;1.08;0.50;;;;;;;;;;4991965;28;20027;-27
2022/03/07 09:21:13;;;;;;;1.67;0.50;;;;;;;;;;4992028;28;20026;-27
2022/03/07 09:23:40;;;;;;;3.78;0.80;;;;;;;;;;4991938;28;20026;-27
2022/03/07 09:26:11;;;;;;;2.47;0.93;;;;;;;;;;4992015;28;20109;-27
2022/03/07 09:28:38;;;;;;;0.95;0.50;;;;;;;;;;4975860;28;20046;-27
2022/03/07 09:31:06;;;;;;;1.70;0.80;;;;;;;;;;4995508;28;20026;-27
2022/03/07 09:33:33;;;;;;;2.42;0.80;;;;;;;;;;4995247;28;20038;-28
2022/03/07 09:36:00;;;;;;;2.38;0.55;;;;;;;;;;4995386;28;20477;-27
2022/03/07 09:38:28;;;;;;;0.88;0.52;;;;;;;;;;4995287;28;20030;-28
2022/03/07 09:40:56;;;;;;;1.95;0.70;;;;;;;;;;4995294;28;20109;-27
2022/03/07 09:43:23;;;;;;;0.93;0.45;;;;;;;;;;4995245;28;20032;-27
2022/03/07 09:45:50;;;;;;;2.47;0.68;;;;;;;;;;4995300;28;20033;-27
2022/03/07 09:48:17;;;;;;;1.23;0.57;;;;;;;;;;4995181;28;20018;-28
2022/03/07 09:50:44;;;;;;;2.85;0.75;;;;;;;;;;4995195;28;20026;-28
2022/03/07 09:53:13;;;;;;;0.73;0.43;;;;;;;;;;4994984;28;20022;-27
2022/03/07 09:55:40;;;;;;;1.20;0.60;;;;;;;;;;4994804;28;20054;-28
2022/03/07 09:58:08;;;;;;;3.55;0.70;;;;;;;;;;4994907;28;20448;-28
2022/03/07 10:00:36;;;;;;;2.72;0.77;;;;;;;;;;4994876;28;20018;-28
2022/03/07 10:03:09;;;;;;;4.80;2.25;;;;;;;;;;4994898;28;20542;-27
2022/03/07 10:05:37;;;;;;;1.63;0.63;;;;;;;;;;4994800;28;20077;-28
2022/03/07 10:08:05;;;;;;;2.05;0.73;;;;;;;;;;4994715;28;20029;-28
2022/03/07 10:10:33;;;;;;;3.20;0.90;;;;;;;;;;4994849;28;20015;-27
2022/03/07 10:13:06;;;;;;;0.93;0.60;;;;;;;;;;4994747;28;20024;-28
2022/03/07 10:15:33;;;;;;;4.20;0.70;;;;;;;;;;4994634;28;20089;-27
2022/03/07 10:18:00;;;;;;;6.07;0.88;;;;;;;;;;4994578;28;20026;-28
2022/03/07 10:20:28;;;;;;;2.67;1.10;;;;;;;;;;4994619;28;20057;-28
2022/03/07 10:22:56;;;;;;;2.78;0.95;;;;;;;;;;4994536;28;20535;-27
2022/03/07 10:25:24;;;;;;;4.03;0.70;;;;;;;;;;4994420;28;20024;-28
2022/03/07 10:27:52;;;;;;;1.40;0.85;;;;;;;;;;4994393;28;20381;-28
2022/03/07 10:30:20;;;;;;;1.95;0.88;;;;;;;;;;4994406;28;20857;-28
2022/03/07 10:32:53;;;;;;;2.15;0.70;;;;;;;;;;4994330;28;20542;-28
2022/03/07 10:35:28;;;;;;;3.38;0.88;;;;;;;;;;4994150;28;20539;-28
2022/03/07 10:37:59;;;;;;;1.30;0.75;;;;;;;;;;4994255;28;20089;-28
2022/03/07 10:40:26;;;;;;;1.38;0.68;;;;;;;;;;4994061;28;20117;-27
2022/03/07 10:42:54;;;;;;;1.55;0.70;;;;;;;;;;4993945;28;20022;-28
2022/03/07 10:45:21;;;;;;;4.40;0.95;;;;;;;;;;4994022;28;20015;-27
2022/03/07 10:47:54;;;;;;;1.95;0.63;;;;;;;;;;4994181;28;20465;-28
2022/03/07 10:50:22;;;;;;;2.13;0.80;;;;;;;;;;4995435;28;20484;-28
2022/03/07 10:52:51;;;;;;;1.58;0.70;;;;;;;;;;5001755;28;20033;-27
2022/03/07 10:55:23;;;;;;;3.75;1.00;;;;;;;;;;5002294;28;20046;-28
2022/03/07 10:57:51;;;;;;;0.90;0.57;;;;;;;;;;5001443;28;20033;-28
2022/03/07 11:00:18;;;;;;;1.95;0.95;;;;;;;;;;5001649;28;20396;-28
2022/03/07 11:02:46;;;;;;;4.07;0.95;;;;;;;;;;5009306;28;20033;-28
2022/03/07 11:05:14;;;;;;;1.55;0.77;;;;;;;;;;5004205;28;20034;-28
2022/03/07 11:07:46;;;;;;;1.50;0.98;;;;;;;;;;4998724;28;20026;-28
2022/03/07 11:10:14;;;;;;;3.53;0.90;;;;;;;;;;4996877;28;20113;-28
2022/03/07 11:12:41;;;;;;;2.63;1.10;;;;;;;;;;5010057;28;20268;-28
2022/03/07 11:15:09;;;;;;;3.17;0.93;;;;;;;;;;5012886;28;20022;-28
2022/03/07 11:17:39;;;;;;;3.20;0.77;;;;;;;;;;5012933;28;20026;-28
2022/03/07 11:20:07;;;;;;;2.58;1.15;;;;;;;;;;5012773;28;20054;-27
2022/03/07 11:22:35;;;;;;;6.82;1.17;;;;;;;;;;5007680;28;20061;-27
2022/03/07 11:25:02;;;;;;;12.00;1.45;;;;;;;;;;5010321;28;20033;-27
2022/03/07 11:27:30;;;;;;;3.58;0.95;;;;;;;;;;5012061;28;20057;-28
2022/03/07 11:29:57;;;;;;;5.20;0.80;;;;;;;;;;5012471;28;20026;-28
2022/03/07 11:32:24;;;;;;;4.78;0.95;;;;;;;;;;5011466;28;20100;-28
2022/03/07 11:34:58;;;;;;;6.30;1.35;;;;;;;;;;5011978;28;20512;-27
2022/03/07 11:37:29;;;;;;;3.00;1.13;;;;;;;;;;5011664;28;20102;-27
2022/03/07 11:39:58;;;;;;;4.50;1.10;;;;;;;;;;5011851;28;20056;-28
2022/03/07 11:42:35;;;;;;;4.10;0.93;;;;;;;;;;5010794;28;20035;-27
2022/03/07 11:45:06;;;;;;;3.53;0.73;;;;;;;;;;5011541;28;20056;-27
2022/03/07 11:47:37;;;;;;;3.95;0.70;;;;;;;;;;5011685;28;20026;-26
2022/03/07 11:50:04;;;;;;;2.13;0.85;;;;;;;;;;4991233;28;20484;-28
2022/03/07 11:52:31;;;;;;;5.22;1.05;;;;;;;;;;4999119;28;20032;-29
2022/03/07 11:55:00;;;;;;;4.03;0.85;;;;;;;;;;5002303;28;20073;-28
2022/03/07 11:57:33;;;;;;;6.38;0.88;;;;;;;;;;4992945;28;20034;-29
2022/03/07 12:00:16;;;;;;;4.35;1.10;;;;;;;;;;5004020;28;20042;-28
2022/03/07 12:02:44;;;;;;;5.28;0.95;;;;;;;;;;5004393;28;20110;-27
2022/03/07 12:05:27;;;;;;;8.35;1.63;;;;;;;;;;4990602;28;20515;-29
2022/03/07 12:08:07;;;;;;;9.02;1.30;;;;;;;;;;5001866;28;20541;-29
2022/03/07 12:10:34;;;;;;;5.65;0.98;;;;;;;;;;5001868;28;20100;-31
2022/03/07 12:13:07;;;;;;;4.15;0.80;;;;;;;;;;4998800;28;20030;-31
2022/03/07 12:15:45;;;;;;;5.32;1.08;;;;;;;;;;4990869;28;20022;-30
2022/03/07 12:18:12;;;;;;;5.60;0.90;;;;;;;;;;4992052;28;20038;-29
2022/03/07 12:20:56;;;;;;;6.28;1.42;;;;;;;;;;4991739;28;20023;-30
2022/03/07 12:23:25;;;;;;;2.92;0.82;;;;;;;;;;4991576;28;20080;-29
2022/03/07 12:26:02;;;;;;;2.40;0.70;;;;;;;;;;4990914;28;20046;-31
2022/03/07 12:28:47;;;;;;;7.90;1.05;;;;;;;;;;4991867;28;20023;-29
2022/03/07 12:31:15;;;;;;;2.28;0.82;;;;;;;;;;4990901;28;20037;-30
2022/03/07 12:33:46;;;;;;;2.60;0.70;;;;;;;;;;4991824;28;20022;-30
2022/03/07 12:36:15;;;;;;;3.53;0.70;;;;;;;;;;4990634;28;20552;-31
2022/03/07 12:38:48;;;;;;;2.05;0.80;;;;;;;;;;4991656;28;20031;-31
2022/03/07 12:41:15;;;;;;;2.08;0.60;;;;;;;;;;4974309;28;20041;-30
2022/03/07 12:43:47;;;;;;;3.15;0.70;;;;;;;;;;4974288;28;20370;-30
2022/03/07 12:46:14;;;;;;;14.85;1.05;;;;;;;;;;4992177;28;20022;-31
2022/03/07 12:48:43;;;;;;;3.75;1.02;;;;;;;;;;4992126;28;20023;-30
2022/03/07 12:51:12;;;;;;;3.65;0.70;;;;;;;;;;4991373;28;20038;-31
2022/03/07 12:53:52;;;;;;;4.07;0.70;;;;;;;;;;4991716;28;20031;-32
2022/03/07 12:56:21;;;;;;;70.35;2.80;;;;;;;;;;4991828;28;20125;-30
2022/03/07 12:58:54;;;;;;;39.83;1.42;;;;;;;;;;4991603;28;20680;-30
2022/03/07 13:01:21;;;;;;;16.02;0.98;;;;;;;;;;4991772;28;20480;-30
2022/03/07 13:03:51;;;;;;;10.32;1.15;;;;;;;;;;4993352;28;20034;-32
2022/03/07 13:06:19;;;;;;;14.15;1.50;;;;;;;;;;4993671;28;20036;-31
2022/03/07 13:08:49;;;;;;;5.70;1.00;;;;;;;;;;5014248;28;20025;-29
2022/03/07 13:11:16;;;;;;;5.55;0.70;;;;;;;;;;5014956;28;20037;-29
2022/03/07 13:13:48;;;;;;;3.88;0.75;;;;;;;;;;5014900;28;20391;-30
2022/03/07 13:16:28;;;;;;;4.32;0.77;;;;;;;;;;5014847;28;20026;-29
2022/03/07 13:18:59;;;;;;;4.15;0.70;;;;;;;;;;5013170;28;20095;-29
2022/03/07 13:21:26;;;;;;;3.38;0.85;;;;;;;;;;5014493;28;20030;-29
2022/03/07 13:23:53;;;;;;;1.58;0.50;;;;;;;;;;5014027;28;20022;-30
2022/03/07 13:26:25;;;;;;;2.80;0.40;;;;;;;;;;4996986;28;20404;-30
2022/03/07 13:29:03;;;;;;;1.10;0.40;;;;;;;;;;5014237;28;20030;-31
2022/03/07 13:31:40;;;;;;;1.52;0.50;;;;;;;;;;5014121;28;20542;-31
2022/03/07 13:34:07;;;;;;;2.85;0.50;;;;;;;;;;5014151;28;20061;-29
2022/03/07 13:36:41;;;;;;;3.28;0.57;;;;;;;;;;5014582;28;20029;-29
2022/03/07 13:39:41;;;;;;;1.50;0.50;;;;;;;;;;5014446;28;20034;-30
2022/03/07 13:42:08;;;;;;;1.85;0.40;;;;;;;;;;4960245;28;20034;-30
2022/03/07 13:44:36;;;;;;;3.10;0.60;;;;;;;;;;5013787;28;20443;-29
2022/03/07 13:47:05;;;;;;;0.73;0.30;;;;;;;;;;5013901;28;20041;-31
2022/03/07 13:49:40;;;;;;;1.88;0.50;;;;;;;;;;5014051;28;20529;-30
2022/03/07 13:52:25;;;;;;;2.30;0.50;;;;;;;;;;5013106;28;20049;-29
2022/03/07 13:54:54;;;;;;;13.50;2.10;;;;;;;;;;5013359;28;20468;-29
2022/03/07 13:57:21;;;;;;;17.88;2.25;;;;;;;;;;5013793;28;20030;-29
2022/03/07 13:59:52;;;;;;;18.55;2.08;;;;;;;;;;5013475;28;20038;-30
2022/03/07 14:02:19;;;;;;;11.10;1.33;;;;;;;;;;5012773;28;20021;-29
2022/03/07 14:04:53;;;;;;;11.65;1.40;;;;;;;;;;5013412;28;20054;-30
2022/03/07 14:07:22;;;;;;;11.15;1.48;;;;;;;;;;5013992;28;20084;-29
2022/03/07 14:10:09;;;;;;;8.48;1.00;;;;;;;;;;5013188;28;20018;-29
2022/03/07 14:12:37;;;;;;;8.60;0.80;;;;;;;;;;5012626;28;20022;-28
2022/03/07 14:15:09;;;;;;;5.03;0.90;;;;;;;;;;5012836;28;20029;-28
2022/03/07 14:17:36;;;;;;;10.77;1.07;;;;;;;;;;5013626;28;20460;-29
2022/03/07 14:20:11;;;;;;;10.57;1.08;;;;;;;;;;4995329;28;20297;-29
2022/03/07 14:22:38;;;;;;;4.57;0.70;;;;;;;;;;5013295;28;20072;-28
2022/03/07 14:25:06;;;;;;;3.83;0.50;;;;;;;;;;5013202;28;20499;-30
2022/03/07 14:27:35;;;;;;;6.68;0.85;;;;;;;;;;5013593;28;20080;-28
2022/03/07 14:30:03;;;;;;;6.75;1.00;;;;;;;;;;5013211;28;20030;-30
2022/03/07 14:32:31;;;;;;;3.30;0.68;;;;;;;;;;5013668;28;20395;-28
2022/03/07 14:34:58;;;;;;;2.88;0.50;;;;;;;;;;5012580;28;20053;-30
2022/03/07 14:37:27;;;;;;;3.17;0.47;;;;;;;;;;4995608;28;20029;-29
2022/03/07 14:39:55;;;;;;;5.30;0.50;;;;;;;;;;5013084;28;20463;-30
2022/03/07 14:42:23;;;;;;;5.28;0.50;;;;;;;;;;5013138;28;20026;-29
2022/03/07 14:44:50;;;;;;;6.80;1.08;;;;;;;;;;5012007;28;20384;-30
2022/03/07 14:47:17;;;;;;;5.30;0.80;;;;;;;;;;5013139;28;20041;-28